Time;durP1;ratioP1;P1;durP2;ratioP2;P2;SDS_P1;SDS_P2;PMS_P1;PMS_P2;Temp;Humidity;BMP_temperature;BMP_pressure;BME280_temperature;BME280_humidity;BME280_pressure;Samples;Min_cycle;Max_cycle;Signal;HPM_P1;HPM_P2
2022/01/16 00:04:44;;;;;;;14.43;11.43;;;0.30;99.90;;;;;;5012066;28;20412;-56
2022/01/16 00:07:10;;;;;;;15.87;12.13;;;0.30;99.90;;;;;;5012788;28;20195;-56
2022/01/16 00:09:36;;;;;;;16.33;12.33;;;0.30;99.90;;;;;;5012101;28;20168;-54
2022/01/16 00:12:05;;;;;;;16.77;12.60;;;0.20;99.90;;;;;;5012336;28;20173;-57
2022/01/16 00:14:31;;;;;;;17.80;13.17;;;0.20;99.90;;;;;;5012345;28;20169;-58
2022/01/16 00:16:57;;;;;;;18.30;13.20;;;0.20;99.90;;;;;;5012213;28;20493;-54
2022/01/16 00:19:23;;;;;;;18.73;13.23;;;0.20;99.90;;;;;;5012576;28;20180;-58
2022/01/16 00:21:49;;;;;;;17.37;12.13;;;0.20;99.90;;;;;;5013331;28;20414;-57
2022/01/16 00:24:14;;;;;;;14.83;11.53;;;0.20;99.90;;;;;;5013834;28;20177;-56
2022/01/16 00:26:41;;;;;;;14.17;11.70;;;0.20;99.90;;;;;;5013773;28;20211;-54
2022/01/16 00:29:08;;;;;;;16.27;12.40;;;0.30;99.90;;;;;;5013910;28;20261;-58
2022/01/16 00:31:36;;;;;;;16.23;12.10;;;0.30;99.90;;;;;;5014023;28;20411;-52
2022/01/16 00:34:03;;;;;;;15.77;12.17;;;0.30;99.90;;;;;;5013487;28;20418;-55
2022/01/16 00:36:28;;;;;;;15.00;11.37;;;0.30;99.90;;;;;;5013775;28;20443;-53
2022/01/16 00:38:56;;;;;;;13.73;10.37;;;0.30;99.90;;;;;;5013574;28;20415;-58
2022/01/16 00:41:22;;;;;;;14.87;10.17;;;0.40;99.90;;;;;;5013829;28;20276;-53
2022/01/16 00:43:49;;;;;;;12.63;9.80;;;0.40;99.90;;;;;;5013441;28;20923;-57
2022/01/16 00:46:15;;;;;;;12.00;9.93;;;0.40;99.90;;;;;;5013377;28;20724;-53
2022/01/16 00:48:41;;;;;;;12.97;10.30;;;0.30;99.90;;;;;;5013495;28;20519;-56
2022/01/16 00:51:07;;;;;;;11.30;8.83;;;0.30;99.90;;;;;;4996565;28;20502;-53
2022/01/16 00:53:32;;;;;;;12.27;9.23;;;0.10;99.90;;;;;;5013759;28;20223;-54
2022/01/16 00:55:58;;;;;;;9.57;8.30;;;-0.10;99.90;;;;;;5013485;28;20455;-57
2022/01/16 00:58:23;;;;;;;12.23;9.20;;;-0.20;99.90;;;;;;5013765;28;20187;-54
2022/01/16 01:00:49;;;;;;;10.30;7.93;;;-0.20;99.90;;;;;;5013246;28;20168;-54
2022/01/16 01:03:16;;;;;;;10.33;7.40;;;-0.20;99.90;;;;;;5013562;28;20176;-52
2022/01/16 01:05:42;;;;;;;10.03;8.20;;;-0.10;99.90;;;;;;5012980;28;20557;-53
2022/01/16 01:08:08;;;;;;;9.37;7.77;;;-0.10;99.90;;;;;;5013531;28;20458;-52
2022/01/16 01:10:37;;;;;;;11.27;8.43;;;0.00;99.90;;;;;;5013476;28;20164;-53
2022/01/16 01:13:10;;;;;;;10.37;8.33;;;0.10;99.90;;;;;;5013394;28;20431;-55
2022/01/16 01:15:44;;;;;;;9.43;7.87;;;0.10;99.90;;;;;;5012955;28;20415;-54
2022/01/16 01:18:11;;;;;;;10.50;8.13;;;0.10;99.90;;;;;;5013258;28;20407;-51
2022/01/16 01:20:37;;;;;;;10.00;8.10;;;-0.20;99.90;;;;;;5012807;28;20444;-56
2022/01/16 01:23:03;;;;;;;10.47;8.67;;;-0.20;99.90;;;;;;5012433;28;20438;-54
2022/01/16 01:25:29;;;;;;;10.80;8.87;;;-0.30;99.90;;;;;;5012669;28;20435;-54
2022/01/16 01:27:54;;;;;;;9.80;8.20;;;-0.20;99.90;;;;;;5012510;28;20216;-57
2022/01/16 01:30:23;;;;;;;9.73;7.93;;;-0.20;99.90;;;;;;4995315;28;20177;-57
2022/01/16 01:32:49;;;;;;;11.33;8.77;;;-0.20;99.90;;;;;;5012687;28;20168;-56
2022/01/16 01:35:18;;;;;;;11.17;9.43;;;-0.50;99.90;;;;;;5012468;28;20827;-58
2022/01/16 01:37:44;;;;;;;11.00;8.40;;;-0.80;99.90;;;;;;5012580;28;20267;-56
2022/01/16 01:40:16;;;;;;;12.53;8.70;;;-1.10;99.90;;;;;;4995123;28;20423;-54
2022/01/16 01:42:45;;;;;;;10.83;8.33;;;-1.20;99.90;;;;;;5012296;28;20411;-56
2022/01/16 01:53:24;;;;;;;10.40;8.53;;;-1.30;99.90;;;;;;5012343;28;20461;-54
2022/01/16 01:55:50;;;;;;;10.07;8.73;;;-1.00;99.90;;;;;;5012043;28;20936;-53
2022/01/16 01:58:16;;;;;;;11.37;8.97;;;-0.80;99.90;;;;;;5012493;28;20181;-56
2022/01/16 02:00:42;;;;;;;12.33;9.50;;;-0.70;99.90;;;;;;5012271;28;20172;-52
2022/01/16 02:03:22;;;;;;;17.60;10.17;;;-0.50;99.90;;;;;;5012409;28;20183;-54
2022/01/16 02:05:48;;;;;;;21.13;9.40;;;-0.40;99.90;;;;;;5011823;28;20451;-53
2022/01/16 02:08:14;;;;;;;12.10;9.60;;;-0.30;99.90;;;;;;5012204;28;20469;-54
2022/01/16 02:10:41;;;;;;;12.57;9.43;;;-0.20;99.90;;;;;;5012110;28;20194;-54
2022/01/16 02:13:11;;;;;;;12.10;9.23;;;-0.20;99.90;;;;;;5012280;28;20251;-56
2022/01/16 02:32:00;;;;;;;11.00;8.83;;;0.00;99.90;;;;;;5012358;28;20527;-52
2022/01/16 02:34:33;;;;;;;10.33;8.53;;;0.00;99.90;;;;;;5015705;28;20407;-54
2022/01/16 02:37:03;;;;;;;12.93;9.93;;;0.10;99.90;;;;;;5015689;28;20431;-53
2022/01/16 02:39:35;;;;;;;13.00;9.23;;;0.10;99.90;;;;;;5016018;28;20497;-52
2022/01/16 02:42:01;;;;;;;11.77;8.87;;;0.20;99.90;;;;;;5016084;28;20439;-52
2022/01/16 02:46:54;;;;;;;12.30;9.50;;;0.10;99.90;;;;;;5015901;28;20430;-52
2022/01/16 02:49:31;;;;;;;11.90;8.77;;;0.10;99.90;;;;;;5015505;28;20200;-53
2022/01/16 02:52:06;;;;;;;11.33;9.27;;;0.10;99.90;;;;;;5015873;28;20461;-52
2022/01/16 02:54:36;;;;;;;11.83;9.40;;;0.20;99.90;;;;;;5015327;28;20451;-55
2022/01/16 02:57:03;;;;;;;10.90;8.80;;;0.20;99.90;;;;;;5043853;23;20528;-58
2022/01/16 02:59:29;;;;;;;12.20;9.60;;;0.20;99.90;;;;;;4995879;28;20404;-57
2022/01/16 03:01:54;;;;;;;12.13;9.57;;;0.20;99.90;;;;;;4996089;28;20404;-60
2022/01/16 03:04:20;;;;;;;11.53;8.70;;;0.10;99.90;;;;;;4995469;28;20177;-59
2022/01/16 03:06:46;;;;;;;11.00;8.57;;;0.10;99.90;;;;;;4996193;28;20205;-61
2022/01/16 03:09:13;;;;;;;10.60;8.20;;;0.00;99.90;;;;;;4995796;28;20201;-60
2022/01/16 03:11:45;;;;;;;9.87;7.83;;;0.10;99.90;;;;;;4995835;28;20173;-56
2022/01/16 03:14:13;;;;;;;10.10;7.67;;;0.10;99.90;;;;;;5015209;28;20411;-61
2022/01/16 03:16:45;;;;;;;9.43;7.33;;;0.10;99.90;;;;;;5015078;28;20455;-58
2022/01/16 03:21:57;;;;;;;7.97;6.63;;;0.10;99.90;;;;;;5015470;28;20943;-60
2022/01/16 03:24:44;;;;;;;8.53;6.90;;;0.10;99.90;;;;;;5015035;28;20959;-59
2022/01/16 03:27:16;;;;;;;9.03;7.10;;;0.00;99.90;;;;;;5014912;28;20497;-58
2022/01/16 03:29:45;;;;;;;9.80;8.00;;;0.00;99.90;;;;;;5015179;28;20407;-55
2022/01/16 03:32:15;;;;;;;11.20;8.30;;;0.00;99.90;;;;;;5014947;28;20730;-59
2022/01/16 03:34:41;;;;;;;11.13;8.17;;;-0.10;99.90;;;;;;5014804;28;20442;-60
2022/01/16 03:37:06;;;;;;;10.43;8.33;;;-0.10;99.90;;;;;;5014820;28;20455;-60
2022/01/16 03:39:32;;;;;;;9.90;8.07;;;-0.20;99.90;;;;;;5015022;28;20634;-58
2022/01/16 03:42:00;;;;;;;11.37;8.80;;;-0.30;99.90;;;;;;5014666;28;20784;-59
2022/01/16 03:44:26;;;;;;;11.33;8.43;;;-0.40;99.90;;;;;;5013833;28;20172;-60
2022/01/16 03:46:52;;;;;;;10.83;8.70;;;-0.60;99.90;;;;;;5014942;28;20437;-54
2022/01/16 03:49:23;;;;;;;10.80;7.80;;;-0.60;99.90;;;;;;5014520;28;20480;-58
2022/01/16 03:51:51;;;;;;;13.90;8.50;;;-0.60;99.90;;;;;;5014882;28;20737;-59
2022/01/16 03:54:19;;;;;;;10.67;8.07;;;-0.60;99.90;;;;;;5014220;28;20466;-58
2022/01/16 03:56:45;;;;;;;14.20;8.80;;;-0.70;99.90;;;;;;5014571;28;20909;-56
2022/01/16 03:59:11;;;;;;;19.33;8.70;;;-0.70;99.90;;;;;;5014565;28;20419;-59
2022/01/16 04:01:37;;;;;;;12.10;8.83;;;-0.80;99.90;;;;;;5014604;28;20408;-58
2022/01/16 04:04:03;;;;;;;14.30;9.10;;;-0.80;99.90;;;;;;5014088;28;20465;-59
2022/01/16 04:06:28;;;;;;;11.67;9.17;;;-0.80;99.90;;;;;;5014476;28;20250;-60
2022/01/16 04:08:55;;;;;;;27.73;9.63;;;-0.80;99.90;;;;;;5014282;28;20547;-61
2022/01/16 04:11:26;;;;;;;31.80;9.87;;;-0.80;99.90;;;;;;5014210;28;20172;-59
2022/01/16 04:13:54;;;;;;;10.67;8.80;;;-1.10;99.90;;;;;;5014614;28;20404;-61
2022/01/16 04:16:23;;;;;;;11.50;8.90;;;-1.20;99.90;;;;;;5013817;28;20944;-58
2022/01/16 04:18:51;;;;;;;11.63;8.53;;;-1.40;99.90;;;;;;5014009;28;20430;-59
2022/01/16 04:21:22;;;;;;;10.43;8.47;;;-1.50;99.90;;;;;;5014040;28;20411;-60
2022/01/16 04:23:51;;;;;;;11.17;8.33;;;-1.50;99.90;;;;;;5014091;28;20431;-61
2022/01/16 04:26:18;;;;;;;11.23;8.63;;;-1.50;99.90;;;;;;5013464;28;20940;-59
2022/01/16 04:28:46;;;;;;;11.87;9.40;;;-1.40;99.90;;;;;;5014007;28;20482;-61
2022/01/16 04:31:13;;;;;;;10.80;8.20;;;-1.50;99.90;;;;;;5013767;28;20411;-57
2022/01/16 04:33:38;;;;;;;11.90;7.63;;;-1.40;99.90;;;;;;5014041;28;20410;-61
2022/01/16 04:36:04;;;;;;;10.53;7.97;;;-1.40;99.90;;;;;;5013557;28;20909;-61
2022/01/16 04:38:30;;;;;;;9.97;7.87;;;-1.40;99.90;;;;;;5013625;28;20184;-61
2022/01/16 04:43:51;;;;;;;9.60;7.53;;;-1.20;99.90;;;;;;5013928;28;20183;-59
2022/01/16 04:46:28;;;;;;;9.20;7.80;;;-1.20;99.90;;;;;;5013450;28;20524;-62
2022/01/16 04:48:55;;;;;;;10.03;7.97;;;-1.20;99.90;;;;;;5013580;28;20451;-60
2022/01/16 04:51:22;;;;;;;9.90;8.30;;;-1.20;99.90;;;;;;5013880;28;20514;-59
2022/01/16 04:53:48;;;;;;;9.53;7.80;;;-1.00;99.90;;;;;;5013632;28;20427;-56
2022/01/16 04:56:14;;;;;;;8.87;7.70;;;-0.90;99.90;;;;;;5013131;28;20487;-57
2022/01/16 04:58:41;;;;;;;8.67;7.30;;;-0.70;99.90;;;;;;5013271;28;20503;-56
2022/01/16 05:01:07;;;;;;;12.63;7.43;;;-0.60;99.90;;;;;;5013372;28;20203;-58
2022/01/16 05:03:34;;;;;;;8.83;7.00;;;-0.70;99.90;;;;;;5013195;28;20404;-60
2022/01/16 05:06:01;;;;;;;32.47;8.40;;;-0.70;99.90;;;;;;5013080;28;20502;-57
2022/01/16 05:08:28;;;;;;;8.87;7.10;;;-0.70;99.90;;;;;;5013282;28;20513;-59
2022/01/16 05:10:55;;;;;;;67.83;11.03;;;-0.60;99.90;;;;;;5013058;28;20750;-60
2022/01/16 05:18:36;;;;;;;9.87;7.67;;;-0.40;99.90;;;;;;5013470;28;20422;-59
2022/01/16 05:21:02;;;;;;;9.80;7.20;;;-0.30;99.90;;;;;;5012891;28;20558;-57
2022/01/16 05:23:29;;;;;;;10.40;7.90;;;-0.30;99.90;;;;;;5013125;28;20407;-59
2022/01/16 05:25:55;;;;;;;11.03;8.53;;;-0.40;99.90;;;;;;5012564;28;20426;-58
2022/01/16 05:28:20;;;;;;;10.97;8.50;;;-0.50;99.90;;;;;;5012785;28;20462;-59
2022/01/16 05:30:46;;;;;;;11.77;8.83;;;-0.50;99.90;;;;;;5012556;28;20411;-59
2022/01/16 05:33:12;;;;;;;10.77;8.27;;;-0.30;99.90;;;;;;5013123;28;20177;-61
2022/01/16 05:35:38;;;;;;;11.87;8.90;;;-0.30;99.90;;;;;;5012589;28;20173;-60
2022/01/16 05:38:03;;;;;;;10.90;8.33;;;-0.20;99.90;;;;;;5012543;28;20189;-59
2022/01/16 05:40:29;;;;;;;10.80;8.00;;;-0.20;99.90;;;;;;5012830;28;20708;-58
2022/01/16 05:42:55;;;;;;;10.67;8.43;;;-0.10;99.90;;;;;;5012489;28;20242;-58
2022/01/16 05:45:21;;;;;;;10.50;8.20;;;0.00;99.90;;;;;;5012488;28;20416;-58
2022/01/16 05:47:47;;;;;;;11.67;8.90;;;0.10;99.90;;;;;;5012262;28;20201;-58
2022/01/16 05:50:13;;;;;;;11.60;8.70;;;0.10;99.90;;;;;;5012735;28;20589;-57
2022/01/16 05:52:39;;;;;;;12.60;7.90;;;0.10;99.90;;;;;;5012399;28;20164;-60
2022/01/16 05:55:06;;;;;;;10.30;8.47;;;-0.10;99.90;;;;;;5012263;28;20765;-60
2022/01/16 05:57:31;;;;;;;11.60;9.27;;;-0.30;99.90;;;;;;5012296;28;20462;-59
2022/01/16 05:59:58;;;;;;;11.07;8.37;;;-0.30;99.90;;;;;;5012242;28;20408;-59
2022/01/16 06:02:24;;;;;;;11.87;9.43;;;-0.10;99.90;;;;;;5012577;28;20180;-59
2022/01/16 06:04:50;;;;;;;10.67;8.40;;;-0.10;99.90;;;;;;5011961;28;20399;-60
2022/01/16 06:07:15;;;;;;;11.80;8.90;;;0.00;99.90;;;;;;5011936;28;20280;-61
2022/01/16 06:09:41;;;;;;;13.00;9.53;;;-0.10;99.90;;;;;;5012082;28;20215;-59
2022/01/16 06:12:08;;;;;;;11.50;9.13;;;-0.20;99.90;;;;;;5012340;28;20172;-61
2022/01/16 06:14:34;;;;;;;13.00;10.30;;;-0.30;99.90;;;;;;5011780;28;20175;-59
2022/01/16 06:17:00;;;;;;;13.57;10.17;;;-0.30;99.90;;;;;;5012175;28;20816;-59
2022/01/16 06:19:26;;;;;;;12.17;9.57;;;-0.20;99.90;;;;;;5012112;28;20180;-59
2022/01/16 06:21:51;;;;;;;13.23;10.33;;;-0.10;99.90;;;;;;5012048;28;20181;-61
2022/01/16 06:24:17;;;;;;;127.10;17.23;;;0.00;99.90;;;;;;5011908;28;20180;-57
2022/01/16 06:26:43;;;;;;;13.87;11.13;;;0.00;99.90;;;;;;4994283;28;20691;-60
2022/01/16 06:29:09;;;;;;;14.37;10.80;;;-0.10;99.90;;;;;;5012145;28;20212;-59
2022/01/16 06:31:35;;;;;;;15.33;11.40;;;0.00;99.90;;;;;;5011892;28;20403;-59
2022/01/16 06:34:03;;;;;;;12.57;10.27;;;0.10;99.90;;;;;;5011814;28;20449;-61
2022/01/16 06:36:29;;;;;;;15.83;11.13;;;0.20;99.90;;;;;;5011788;28;20975;-59
2022/01/16 06:38:55;;;;;;;14.90;11.03;;;0.20;99.90;;;;;;5011952;28;20478;-60
2022/01/16 06:41:21;;;;;;;137.57;18.57;;;0.10;99.90;;;;;;5011773;28;20196;-58
2022/01/16 06:43:47;;;;;;;15.10;11.37;;;-0.10;99.90;;;;;;5012094;28;20449;-57
2022/01/16 06:46:12;;;;;;;17.30;12.30;;;-0.30;99.90;;;;;;5011690;28;20631;-61
2022/01/16 06:48:40;;;;;;;100.43;16.67;;;-0.40;99.90;;;;;;5011564;28;20279;-60
2022/01/16 06:51:07;;;;;;;15.57;11.97;;;-0.40;99.90;;;;;;5011974;28;20169;-60
2022/01/16 06:53:33;;;;;;;15.43;11.73;;;-0.40;99.90;;;;;;5011664;28;20412;-59
2022/01/16 06:55:58;;;;;;;17.80;12.90;;;-0.30;99.90;;;;;;5011540;28;20494;-59
2022/01/16 06:58:24;;;;;;;17.67;12.70;;;-0.30;99.90;;;;;;5011423;28;21051;-61
2022/01/16 07:00:49;;;;;;;24.63;14.27;;;-0.10;99.90;;;;;;5011894;28;20200;-60
2022/01/16 07:03:15;;;;;;;18.20;12.97;;;-0.20;99.90;;;;;;5011665;28;20177;-58
2022/01/16 07:05:44;;;;;;;20.63;13.97;;;-0.10;99.90;;;;;;5011517;28;20177;-59
2022/01/16 07:08:10;;;;;;;20.27;14.70;;;-0.10;99.90;;;;;;5011325;28;20275;-61
2022/01/16 07:10:36;;;;;;;18.70;13.33;;;-0.10;99.90;;;;;;5011748;28;20917;-61
2022/01/16 07:13:02;;;;;;;19.23;13.77;;;0.00;99.90;;;;;;5011759;28;20169;-61
2022/01/16 07:15:28;;;;;;;20.10;13.67;;;0.10;99.90;;;;;;5011361;28;20259;-58
2022/01/16 07:17:54;;;;;;;21.97;14.10;;;0.20;99.90;;;;;;5011807;28;20971;-55
2022/01/16 07:20:19;;;;;;;18.23;13.63;;;0.30;99.90;;;;;;5013623;28;20255;-61
2022/01/16 07:22:45;;;;;;;15.87;12.03;;;0.40;99.90;;;;;;5015382;28;20181;-60
2022/01/16 07:25:12;;;;;;;20.17;13.67;;;0.50;99.90;;;;;;5014944;28;20596;-61
2022/01/16 07:27:38;;;;;;;18.17;13.03;;;0.40;99.90;;;;;;5014920;28;20430;-59
2022/01/16 07:30:05;;;;;;;21.27;14.50;;;0.10;99.90;;;;;;5014980;28;20407;-60
2022/01/16 07:32:30;;;;;;;21.60;13.77;;;0.10;99.90;;;;;;5015181;28;20630;-62
2022/01/16 07:34:56;;;;;;;21.60;13.27;;;0.10;99.90;;;;;;5014878;28;20411;-62
2022/01/16 07:37:21;;;;;;;17.63;13.10;;;0.20;99.90;;;;;;5014768;28;20227;-62
2022/01/16 07:39:47;;;;;;;18.50;13.20;;;0.20;99.90;;;;;;5015029;28;20533;-58
2022/01/16 07:42:13;;;;;;;17.73;12.73;;;0.30;99.90;;;;;;5014735;28;20168;-58
2022/01/16 07:44:38;;;;;;;19.27;13.07;;;0.40;99.90;;;;;;5014631;28;20239;-56
2022/01/16 07:47:05;;;;;;;20.03;14.07;;;0.60;99.90;;;;;;5014580;28;20203;-60
2022/01/16 07:49:30;;;;;;;19.23;13.17;;;0.70;99.90;;;;;;5014743;28;20286;-61
2022/01/16 07:51:56;;;;;;;19.90;13.17;;;0.80;99.90;;;;;;5014549;28;20431;-60
2022/01/16 07:54:21;;;;;;;19.33;13.37;;;0.80;99.90;;;;;;5014532;28;20168;-59
2022/01/16 07:56:47;;;;;;;19.53;13.57;;;0.90;99.90;;;;;;5014464;28;20200;-58
2022/01/16 07:59:13;;;;;;;21.50;14.17;;;0.90;99.90;;;;;;5014420;28;20180;-57
2022/01/16 08:01:38;;;;;;;18.77;12.77;;;0.90;99.90;;;;;;5014664;28;20561;-58
2022/01/16 08:04:04;;;;;;;21.23;14.50;;;0.80;99.90;;;;;;5014181;28;20411;-56
2022/01/16 08:06:30;;;;;;;19.43;13.03;;;0.80;99.90;;;;;;5014386;28;20657;-60
2022/01/16 08:08:56;;;;;;;22.20;14.27;;;0.80;99.90;;;;;;5014252;28;20200;-59
2022/01/16 08:11:22;;;;;;;19.57;14.03;;;0.90;99.90;;;;;;5014403;28;20212;-61
2022/01/16 08:13:48;;;;;;;20.17;15.60;;;0.90;99.90;;;;;;5014227;28;20169;-60
2022/01/16 08:16:14;;;;;;;19.63;14.20;;;0.90;99.90;;;;;;5013735;28;20400;-55
2022/01/16 08:18:40;;;;;;;21.50;14.07;;;0.90;99.90;;;;;;5014013;28;20173;-57
2022/01/16 08:21:06;;;;;;;20.23;15.87;;;0.90;99.90;;;;;;5013898;28;20423;-57
2022/01/16 08:23:31;;;;;;;22.47;16.67;;;0.80;99.90;;;;;;5014414;28;20430;-59
2022/01/16 08:25:57;;;;;;;26.97;20.70;;;0.80;99.90;;;;;;5013446;28;20227;-55
2022/01/16 08:28:23;;;;;;;27.40;19.30;;;0.80;99.90;;;;;;5013906;28;20199;-60
2022/01/16 08:30:48;;;;;;;31.67;23.77;;;0.80;99.90;;;;;;5013271;28;20585;-57
2022/01/16 08:33:14;;;;;;;34.30;24.97;;;0.90;99.90;;;;;;5001759;28;20308;-58
2022/01/16 08:35:39;;;;;;;37.10;26.67;;;1.00;99.90;;;;;;5002490;28;20170;-60
2022/01/16 08:38:05;;;;;;;38.43;27.50;;;0.90;99.90;;;;;;5006186;28;20270;-57
2022/01/16 08:40:31;;;;;;;22.47;15.33;;;1.00;99.90;;;;;;5004308;28;20180;-56
2022/01/16 08:42:56;;;;;;;23.30;15.67;;;1.00;99.90;;;;;;5003314;28;20256;-59
2022/01/16 08:45:22;;;;;;;20.60;15.00;;;1.00;99.90;;;;;;5002842;28;20188;-58
2022/01/16 08:47:47;;;;;;;25.27;15.73;;;1.00;99.90;;;;;;4997765;28;20558;-55
2022/01/16 08:50:15;;;;;;;20.40;14.20;;;1.00;99.90;;;;;;5000680;28;20607;-58
2022/01/16 08:52:41;;;;;;;20.33;14.27;;;0.90;99.90;;;;;;5001975;28;20546;-58
2022/01/16 08:55:09;;;;;;;24.80;18.23;;;0.90;99.90;;;;;;5000759;28;20416;-58
2022/01/16 08:57:35;;;;;;;22.20;14.70;;;0.80;99.90;;;;;;5004567;28;20995;-60
2022/01/16 09:00:01;;;;;;;23.30;15.53;;;0.90;99.90;;;;;;5000504;28;20427;-60
2022/01/16 09:02:27;;;;;;;26.03;19.13;;;1.00;99.90;;;;;;5022000;23;20233;-54
2022/01/16 09:04:52;;;;;;;29.20;20.93;;;1.00;99.90;;;;;;4983782;28;20421;-50
2022/01/16 09:07:20;;;;;;;26.87;18.90;;;1.00;99.90;;;;;;4973761;28;20170;-52
2022/01/16 09:09:45;;;;;;;21.03;14.93;;;1.10;99.90;;;;;;4982264;28;20229;-53
2022/01/16 09:12:11;;;;;;;19.30;13.93;;;1.10;99.90;;;;;;4993356;28;20460;-54
2022/01/16 09:14:37;;;;;;;25.07;17.83;;;1.10;99.90;;;;;;4992102;28;20189;-54
2022/01/16 09:17:03;;;;;;;19.63;13.87;;;1.20;99.90;;;;;;4973533;28;20182;-50
2022/01/16 09:19:29;;;;;;;21.67;14.90;;;1.20;99.90;;;;;;4973080;28;20354;-51
2022/01/16 09:21:55;;;;;;;23.77;15.83;;;1.20;99.90;;;;;;4983099;28;20445;-52
2022/01/16 09:24:21;;;;;;;22.43;15.03;;;1.20;99.90;;;;;;4974428;28;20414;-51
2022/01/16 09:26:47;;;;;;;24.87;17.17;;;1.20;99.90;;;;;;4992976;28;20424;-51
2022/01/16 09:29:12;;;;;;;22.97;16.40;;;1.20;99.90;;;;;;4993058;28;20197;-55
2022/01/16 09:31:38;;;;;;;20.97;13.10;;;1.20;99.90;;;;;;4983773;28;20201;-51
2022/01/16 09:34:04;;;;;;;20.90;14.47;;;1.20;99.90;;;;;;4992451;28;20293;-50
2022/01/16 09:36:30;;;;;;;20.83;14.57;;;1.20;99.90;;;;;;4986588;28;20192;-52
2022/01/16 09:38:55;;;;;;;23.87;15.37;;;1.20;99.90;;;;;;4992547;28;20416;-51
2022/01/16 09:41:21;;;;;;;22.93;15.87;;;1.30;99.90;;;;;;4990709;28;20205;-54
2022/01/16 09:43:47;;;;;;;20.30;13.97;;;1.30;99.90;;;;;;4976200;28;20715;-52
2022/01/16 09:46:12;;;;;;;21.70;14.43;;;1.40;99.90;;;;;;4992602;28;20177;-51
2022/01/16 09:48:38;;;;;;;24.90;17.47;;;1.40;99.90;;;;;;4986045;28;20213;-52
2022/01/16 09:51:04;;;;;;;21.27;15.77;;;1.50;99.90;;;;;;4981196;28;20220;-55
2022/01/16 09:53:30;;;;;;;20.90;14.23;;;1.40;99.90;;;;;;4968850;28;20197;-52
2022/01/16 09:55:55;;;;;;;20.33;14.87;;;1.50;99.90;;;;;;4989447;28;20256;-51
2022/01/16 09:58:21;;;;;;;20.90;14.60;;;1.50;99.90;;;;;;5005466;28;20173;-50
2022/01/16 10:00:47;;;;;;;19.07;13.53;;;1.60;99.90;;;;;;4979272;28;20189;-52
2022/01/16 10:03:38;;;;;;;19.43;14.30;;;1.60;99.90;;;;;;4972782;28;20814;-51
2022/01/16 10:06:13;;;;;;;40.63;26.20;;;1.60;99.90;;;;;;4972902;28;20410;-51
2022/01/16 10:08:41;;;;;;;39.37;28.53;;;1.70;99.90;;;;;;4972404;28;20504;-52
2022/01/16 10:11:38;;;;;;;31.13;23.60;;;1.70;99.90;;;;;;4981987;28;20806;-54
2022/01/16 10:16:37;;;;;;;24.70;18.07;;;1.80;99.90;;;;;;4988833;28;20427;-53
2022/01/16 10:19:04;;;;;;;33.43;24.60;;;1.80;99.90;;;;;;4992039;28;20404;-57
2022/01/16 10:21:32;;;;;;;24.07;19.07;;;1.70;99.90;;;;;;4992115;28;20436;-55
2022/01/16 10:23:58;;;;;;;21.60;15.23;;;1.80;99.90;;;;;;4991687;28;20416;-55
2022/01/16 10:26:24;;;;;;;31.63;22.60;;;1.80;99.90;;;;;;4991552;28;20419;-49
2022/01/16 10:28:51;;;;;;;20.10;14.77;;;1.90;99.90;;;;;;4987692;28;20205;-52
2022/01/16 10:31:25;;;;;;;19.67;14.07;;;1.90;99.90;;;;;;4991532;28;20306;-56
2022/01/16 10:33:53;;;;;;;20.20;14.40;;;1.90;99.90;;;;;;4989801;28;20416;-56
2022/01/16 10:36:50;;;;;;;19.97;14.27;;;1.90;99.90;;;;;;4990848;28;20436;-56
2022/01/16 10:39:16;;;;;;;19.40;13.93;;;2.00;99.90;;;;;;4947632;29;20963;-56
2022/01/16 10:41:41;;;;;;;18.47;13.47;;;2.00;99.90;;;;;;4944389;28;20456;-54
2022/01/16 10:44:30;;;;;;;19.27;13.30;;;2.00;99.90;;;;;;4935384;29;20267;-60
2022/01/16 10:46:57;;;;;;;20.57;13.90;;;2.10;99.90;;;;;;4941336;28;20236;-57
2022/01/16 10:49:23;;;;;;;20.10;13.63;;;2.10;99.90;;;;;;4914569;29;20550;-56
2022/01/16 10:52:09;;;;;;;19.07;13.67;;;2.10;99.90;;;;;;4930532;29;20459;-61
2022/01/16 10:54:37;;;;;;;20.97;13.30;;;2.10;99.90;;;;;;4933343;28;20438;-52
2022/01/16 10:57:26;;;;;;;18.80;13.27;;;2.00;99.90;;;;;;4935708;29;20415;-53
2022/01/16 11:00:19;;;;;;;18.07;12.93;;;2.00;99.90;;;;;;4935326;29;20431;-55
2022/01/16 11:02:47;;;;;;;17.90;12.70;;;1.90;99.90;;;;;;4930156;29;20612;-55
2022/01/16 11:05:24;;;;;;;17.13;12.53;;;2.00;99.90;;;;;;4947991;29;20501;-54
2022/01/16 11:07:59;;;;;;;20.30;12.80;;;2.10;99.90;;;;;;4949738;29;20439;-54
2022/01/16 11:10:39;;;;;;;17.10;11.97;;;2.10;99.90;;;;;;4940830;29;20525;-54
2022/01/16 11:13:09;;;;;;;18.40;13.47;;;2.20;99.90;;;;;;4922274;29;20987;-55
2022/01/16 11:15:36;;;;;;;18.03;12.73;;;2.30;99.90;;;;;;4964693;28;20421;-56
2022/01/16 11:18:03;;;;;;;18.10;12.97;;;2.40;99.90;;;;;;4980238;28;20448;-58
2022/01/16 11:20:33;;;;;;;19.13;14.00;;;2.50;99.90;;;;;;4987975;28;20466;-55
2022/01/16 11:23:13;;;;;;;63.53;39.20;;;2.60;99.90;;;;;;4994818;28;20820;-52
2022/01/16 11:25:39;;;;;;;20.37;14.60;;;2.70;99.90;;;;;;4978258;28;20515;-54
2022/01/16 11:28:09;;;;;;;17.23;12.33;;;2.70;99.90;;;;;;4976103;28;20460;-53
2022/01/16 11:30:38;;;;;;;18.17;13.57;;;2.50;99.90;;;;;;4991002;28;20420;-57
2022/01/16 11:33:05;;;;;;;20.27;14.20;;;2.30;99.90;;;;;;4985741;28;20648;-52
2022/01/16 11:35:32;;;;;;;18.73;13.70;;;2.30;99.90;;;;;;4979808;28;20268;-54
2022/01/16 11:37:59;;;;;;;18.40;12.40;;;2.40;99.90;;;;;;4994094;28;20506;-51
2022/01/16 11:40:30;;;;;;;21.83;13.50;;;2.50;99.90;;;;;;4994951;28;20420;-53
2022/01/16 11:43:15;;;;;;;19.27;13.63;;;2.50;99.90;;;;;;4993878;28;20698;-56
2022/01/16 11:46:09;;;;;;;18.77;13.80;;;2.40;99.90;;;;;;4976192;28;20165;-53
2022/01/16 11:48:42;;;;;;;19.47;13.60;;;2.40;99.90;;;;;;4993175;28;20451;-57
2022/01/16 11:51:35;;;;;;;19.60;14.60;;;2.40;99.90;;;;;;4992088;28;20826;-57
2022/01/16 11:54:34;;;;;;;19.33;13.77;;;2.40;99.90;;;;;;4993577;28;20781;-53
2022/01/16 11:57:21;;;;;;;21.70;12.97;;;2.50;99.90;;;;;;4924011;29;20730;-58
2022/01/16 12:00:08;;;;;;;19.53;13.80;;;2.40;99.90;;;;;;4927289;29;20704;-58
2022/01/16 12:02:40;;;;;;;19.70;13.27;;;2.50;99.90;;;;;;4926742;29;20501;-58
2022/01/16 12:05:06;;;;;;;18.60;12.97;;;2.50;99.90;;;;;;4933415;29;20175;-57
2022/01/16 12:07:35;;;;;;;21.57;14.47;;;2.50;99.90;;;;;;4934597;29;20423;-54
2022/01/16 12:10:01;;;;;;;20.33;14.53;;;2.40;99.90;;;;;;4926268;29;20442;-56
2022/01/16 12:12:27;;;;;;;19.00;13.27;;;2.30;99.90;;;;;;4934444;29;20576;-56
2022/01/16 12:15:01;;;;;;;21.80;14.40;;;2.30;99.90;;;;;;4933848;29;20230;-54
2022/01/16 12:20:20;;;;;;;21.03;13.37;;;2.10;99.90;;;;;;4934250;29;20464;-58
2022/01/16 12:22:57;;;;;;;23.00;15.07;;;2.00;99.90;;;;;;4934366;29;20194;-52
2022/01/16 12:25:27;;;;;;;21.80;14.30;;;2.00;99.90;;;;;;4927675;29;20412;-52
2022/01/16 12:28:04;;;;;;;22.30;14.80;;;2.00;99.90;;;;;;4925015;29;20982;-55
2022/01/16 12:30:51;;;;;;;22.97;14.37;;;2.20;99.90;;;;;;4934081;29;20447;-55
2022/01/16 12:33:43;;;;;;;22.63;14.63;;;2.30;99.90;;;;;;4966396;28;20576;-55
2022/01/16 12:36:13;;;;;;;23.30;15.20;;;2.30;99.90;;;;;;4974353;28;20432;-57
2022/01/16 12:38:40;;;;;;;20.97;13.37;;;2.30;99.90;;;;;;4974732;28;20775;-57
2022/01/16 12:41:26;;;;;;;23.03;14.60;;;2.30;99.90;;;;;;4974523;28;20194;-55
2022/01/16 12:43:54;;;;;;;21.60;14.17;;;2.40;99.90;;;;;;4974815;28;20596;-58
2022/01/16 12:46:25;;;;;;;20.63;14.17;;;2.40;99.90;;;;;;4974418;28;20436;-57
2022/01/16 12:48:52;;;;;;;20.17;13.83;;;2.50;99.90;;;;;;4993760;28;20204;-54
2022/01/16 12:51:23;;;;;;;23.47;15.37;;;2.50;99.90;;;;;;4986794;28;20455;-56
2022/01/16 12:53:51;;;;;;;24.70;15.83;;;2.60;99.90;;;;;;4983541;28;20417;-55
2022/01/16 12:56:30;;;;;;;19.87;13.73;;;2.50;99.90;;;;;;4983056;28;20447;-54
2022/01/16 12:59:05;;;;;;;23.37;14.73;;;2.60;99.90;;;;;;4983613;28;20424;-52
2022/01/16 13:01:31;;;;;;;21.33;13.93;;;2.70;99.90;;;;;;4985611;28;20475;-58
2022/01/16 13:03:57;;;;;;;21.50;14.23;;;2.80;99.90;;;;;;4989773;28;20448;-56
2022/01/16 13:06:27;;;;;;;20.10;13.43;;;2.80;99.90;;;;;;4991687;28;20598;-57
2022/01/16 13:09:09;;;;;;;22.03;14.07;;;2.80;99.90;;;;;;4993211;28;20225;-58
2022/01/16 13:11:47;;;;;;;20.67;14.17;;;2.80;99.90;;;;;;4993739;28;20189;-55
2022/01/16 13:14:16;;;;;;;21.63;13.67;;;2.70;99.90;;;;;;4991516;28;20439;-57
2022/01/16 13:16:45;;;;;;;24.23;14.50;;;2.70;99.90;;;;;;4991191;28;20232;-53
2022/01/16 13:19:15;;;;;;;26.50;15.73;;;2.50;99.90;;;;;;4992340;28;20200;-53
2022/01/16 13:21:59;;;;;;;22.17;14.23;;;2.50;99.90;;;;;;4975385;28;20204;-60
2022/01/16 13:24:34;;;;;;;22.37;14.37;;;2.40;99.90;;;;;;4992844;28;20173;-58
2022/01/16 13:27:03;;;;;;;22.40;14.53;;;2.30;99.90;;;;;;4992792;28;20204;-54
2022/01/16 13:29:29;;;;;;;24.07;15.70;;;2.20;99.90;;;;;;4992872;28;20326;-55
2022/01/16 13:31:55;;;;;;;26.00;15.23;;;2.20;99.90;;;;;;4992361;28;20197;-55